aviador You're here:

LQTZ Decoded Metar

in _UNIDENTIFIED
Report Time2017-11-22 05:00:00
UTC Time2017-11-22 05:13:30
Flight Rules vfr VFR
WindVRB at 01 kt
Visibility8000 m
Phenomena:N/A
Clouds:N/A
CeilingNone
Temp00°C (ISA -13)
Dew Point00°C (100% RH)
AAT-2.3°C
QNH1018 hPa
Density Alt-666 ft
Elevation1,004 ft
Report Wrong Elevation
Raw Report
LQTZ 220500Z VRB01KT 8000 NSC M00/M00 Q1018=

Extra information for LQTZ:More info

Metar Taf Metar & Taf Last 4 Metars F.Rules Stats Wind Profile Meteogram Temp Stats Metar ALERT Operation Metar Decoded Social comments